createdAt,value
2023-05-14T00:03:47.588Z,99785.84
2023-05-14T00:06:16.878Z,99803.28
2023-05-14T00:08:43.901Z,99801.41
2023-05-14T00:11:11.133Z,99804.28
2023-05-14T00:18:05.496Z,99800.28
2023-05-14T00:20:32.596Z,99777.34
2023-05-14T00:27:24.940Z,99782.31
2023-05-14T00:30:02.882Z,99805.53
2023-05-14T00:32:31.716Z,99799.63
2023-05-14T00:39:36.011Z,99810.66
2023-05-14T00:42:03.023Z,99814.63
2023-05-14T00:48:56.069Z,99786.28
2023-05-14T00:51:23.717Z,99799.63
2023-05-14T00:53:51.096Z,99815.03
2023-05-14T00:56:19.244Z,99806.41
2023-05-14T01:03:11.104Z,99812.06
2023-05-14T01:15:05.076Z,99828.56
2023-05-14T01:22:03.435Z,99802.78
2023-05-14T01:33:48.601Z,99835.50
2023-05-14T01:40:51.248Z,99835.88
2023-05-14T01:47:48.582Z,99853.16
2023-05-14T01:50:16.227Z,99850.47
2023-05-14T01:57:11.189Z,99810.78
2023-05-14T01:59:38.228Z,99848.59
2023-05-14T02:06:40.356Z,99817.91
2023-05-14T02:09:07.498Z,99860.75
2023-05-14T02:16:01.387Z,99819.91
2023-05-14T02:18:51.148Z,99867.16
2023-05-14T02:21:18.343Z,99859.66
2023-05-14T02:28:13.398Z,99877.88
2023-05-14T02:30:40.564Z,99839.53
2023-05-14T02:37:32.931Z,99876.88
2023-05-14T02:40:00.237Z,99878.91
2023-05-14T02:42:27.347Z,99893.28
2023-05-14T02:49:19.834Z,99855.84
2023-05-14T02:51:49.798Z,99882.94
2023-05-14T02:54:16.965Z,99892.97
2023-05-14T02:56:44.179Z,99889.47
2023-05-14T03:01:16.897Z,99853.31
2023-05-14T03:04:06.043Z,99892.25
2023-05-14T03:06:33.123Z,99892.84
2023-05-14T03:13:25.494Z,99883.38
2023-05-14T03:15:55.182Z,99905.75
2023-05-14T03:22:57.586Z,99870.84
2023-05-14T03:25:24.763Z,99905.94
2023-05-14T03:36:53.842Z,99896.44
2023-05-14T03:39:21.344Z,99894.25
2023-05-14T03:41:48.502Z,99889.53
2023-05-14T03:48:46.711Z,99912.28
2023-05-14T03:55:50.870Z,99895.00
2023-05-14T03:58:18.536Z,99900.63
2023-05-14T04:00:45.747Z,99918.53
2023-05-14T04:10:14.132Z,99923.53
2023-05-14T04:19:24.755Z,99913.63
2023-05-14T04:21:51.758Z,99935.88
2023-05-14T04:24:18.791Z,99934.50
2023-05-14T04:33:27.972Z,99922.31
2023-05-14T04:35:54.977Z,99923.78
2023-05-14T04:47:22.894Z,99914.34
2023-05-14T04:49:50.176Z,99934.13
2023-05-14T04:52:17.113Z,99933.28
2023-05-14T05:01:31.601Z,99931.22
2023-05-14T05:03:58.863Z,99930.66
2023-05-14T05:09:13.831Z,99925.44
2023-05-14T05:17:35.051Z,99947.16
2023-05-14T05:20:04.170Z,99917.22
2023-05-14T05:25:16.937Z,99924.72
2023-05-14T05:27:43.949Z,99943.09
2023-05-14T05:41:05.886Z,99949.16
2023-05-14T05:46:15.183Z,99938.19
2023-05-14T05:48:42.136Z,99930.63
2023-05-14T05:51:09.212Z,99919.66
2023-05-14T05:53:42.309Z,99927.41
2023-05-14T06:07:39.602Z,99924.72
2023-05-14T06:26:41.739Z,99902.53
2023-05-14T06:29:08.794Z,99920.75
2023-05-14T06:31:38.234Z,99890.47
2023-05-14T06:34:05.334Z,99903.34
2023-05-14T06:53:02.317Z,99899.78
2023-05-14T06:55:29.349Z,99919.38
2023-05-14T06:57:56.344Z,99884.00
2023-05-14T07:00:23.699Z,99912.13
2023-05-14T07:02:57.022Z,99894.84
2023-05-14T07:05:25.215Z,99909.81
2023-05-14T07:07:52.393Z,99911.69
2023-05-14T07:10:19.443Z,99921.69
2023-05-14T07:24:15.704Z,99907.47
2023-05-14T07:26:42.749Z,99922.38
2023-05-14T07:29:12.298Z,99941.09
2023-05-14T07:37:11.953Z,99951.41
2023-05-14T07:39:39.223Z,99939.31
2023-05-14T07:42:06.448Z,99956.66
2023-05-14T07:44:33.436Z,99944.56
2023-05-14T07:47:00.599Z,99962.59
2023-05-14T07:49:27.745Z,99943.81
2023-05-14T07:51:54.710Z,99949.41
2023-05-14T07:54:21.786Z,99944.19
2023-05-14T07:56:48.747Z,99958.97
2023-05-14T07:59:15.872Z,99948.69
2023-05-14T08:01:42.936Z,99954.28
2023-05-14T08:04:12.337Z,99943.56
2023-05-14T08:06:39.415Z,99928.25
2023-05-14T08:09:06.898Z,99932.28
2023-05-14T08:11:33.986Z,99937.84
2023-05-14T08:14:01.105Z,99964.06
2023-05-14T08:16:28.236Z,99936.22
2023-05-14T08:18:55.492Z,99956.59
2023-05-14T08:21:22.911Z,99926.22
2023-05-14T08:23:49.865Z,99937.03
2023-05-14T08:26:16.842Z,99939.72
2023-05-14T08:28:43.814Z,99945.22
2023-05-14T08:31:10.998Z,99950.03
2023-05-14T08:33:38.153Z,99946.28
2023-05-14T08:36:05.641Z,99941.72
2023-05-14T08:38:32.640Z,99957.09
2023-05-14T08:41:00.621Z,99947.94
2023-05-14T08:43:35.485Z,99943.56
2023-05-14T08:46:07.172Z,99933.94
2023-05-14T08:48:35.420Z,99942.88
2023-05-14T08:51:03.130Z,99952.41
2023-05-14T08:53:31.359Z,99925.59
2023-05-14T08:56:00.319Z,99943.56
2023-05-14T08:58:29.693Z,99949.56
2023-05-14T09:00:59.556Z,99943.34
2023-05-14T09:03:27.144Z,99937.75
2023-05-14T09:05:54.615Z,99937.97
2023-05-14T09:08:22.095Z,99938.78
2023-05-14T09:10:49.262Z,99924.59
2023-05-14T09:13:16.537Z,99908.00
2023-05-14T09:15:43.602Z,99937.31
2023-05-14T09:18:29.398Z,99955.53
2023-05-14T09:20:56.500Z,99925.53
2023-05-14T09:23:26.761Z,99924.94
2023-05-14T09:25:53.819Z,99925.41
2023-05-14T09:28:23.045Z,99943.75
2023-05-14T09:30:53.040Z,99938.97
2023-05-14T09:33:28.452Z,99931.50
2023-05-14T09:35:59.738Z,99949.19
2023-05-14T09:38:33.201Z,99923.78
2023-05-14T09:41:01.228Z,99942.72
2023-05-14T09:43:28.900Z,99943.34
2023-05-14T09:46:01.275Z,99939.19
2023-05-14T09:48:29.046Z,99932.88
2023-05-14T09:50:56.103Z,99965.69
2023-05-14T09:53:23.390Z,99941.81
2023-05-14T09:55:50.898Z,99924.78
2023-05-14T09:58:19.478Z,99939.69
2023-05-14T10:00:47.992Z,99928.75
2023-05-14T10:03:18.752Z,99930.03
2023-05-14T10:05:49.648Z,99932.53
2023-05-14T10:08:26.897Z,99928.59
2023-05-14T10:10:58.665Z,99922.97
2023-05-14T10:13:31.881Z,99917.56
2023-05-14T10:16:09.798Z,99925.88
2023-05-14T10:18:43.153Z,99915.34
2023-05-14T10:21:11.793Z,99922.88
2023-05-14T10:23:39.208Z,99892.06
2023-05-14T10:26:07.064Z,99935.88
2023-05-14T10:28:34.456Z,99930.25
2023-05-14T10:31:01.543Z,99928.38
2023-05-14T10:33:28.847Z,99938.31
2023-05-14T10:36:05.846Z,99935.66
2023-05-14T10:38:35.118Z,99914.84
2023-05-14T10:41:04.276Z,99917.75
2023-05-14T10:43:36.470Z,99923.00
2023-05-14T10:46:04.515Z,99918.41
2023-05-14T10:48:33.032Z,99907.72
2023-05-14T10:51:03.460Z,99906.88
2023-05-14T10:53:36.429Z,99914.56
2023-05-14T10:56:11.780Z,99893.75
2023-05-14T10:58:44.049Z,99914.84
2023-05-14T11:01:13.115Z,99905.91
2023-05-14T11:06:31.563Z,99908.59
2023-05-14T11:09:02.952Z,99899.81
2023-05-14T11:11:30.132Z,99927.56
2023-05-14T11:13:58.301Z,99915.03
2023-05-14T11:16:30.921Z,99916.63
2023-05-14T11:19:03.784Z,99907.03
2023-05-14T11:21:33.113Z,99909.25
2023-05-14T11:24:01.052Z,99910.59
2023-05-14T11:26:28.103Z,99908.72
2023-05-14T11:28:55.464Z,99912.81
2023-05-14T11:31:22.699Z,99896.22
2023-05-14T11:34:14.887Z,99923.38
2023-05-14T11:36:42.448Z,99891.47
2023-05-14T11:39:27.956Z,99905.41
2023-05-14T11:41:55.029Z,99903.66
2023-05-14T11:44:22.910Z,99922.31
2023-05-14T11:46:57.657Z,99902.13
2023-05-14T11:49:25.759Z,99896.28
2023-05-14T11:52:00.323Z,99892.91
2023-05-14T11:54:31.009Z,99907.19
2023-05-14T11:56:59.509Z,99912.56
2023-05-14T11:59:45.881Z,99897.25
2023-05-14T12:02:15.164Z,99897.84
2023-05-14T12:04:43.072Z,99908.50
2023-05-14T12:07:12.395Z,99897.94
2023-05-14T12:09:44.276Z,99887.16
2023-05-14T12:12:12.901Z,99900.75
2023-05-14T12:14:43.840Z,99896.84
2023-05-14T12:17:18.057Z,99892.31
2023-05-14T12:19:47.013Z,99901.56
2023-05-14T12:22:38.844Z,99891.97
2023-05-14T12:25:12.976Z,99908.00
2023-05-14T12:27:40.623Z,99905.50
2023-05-14T12:32:42.293Z,99899.19
2023-05-14T12:35:09.727Z,99898.75
2023-05-14T12:37:37.746Z,99876.50
2023-05-14T12:40:09.367Z,99904.63
2023-05-14T12:42:37.454Z,99888.41
2023-05-14T12:45:08.176Z,99872.16
2023-05-14T12:47:36.499Z,99885.91
2023-05-14T12:50:04.068Z,99878.22
2023-05-14T12:52:38.565Z,99886.97
2023-05-14T12:55:08.316Z,99896.09
2023-05-14T12:57:35.858Z,99879.47
2023-05-14T13:00:07.238Z,99893.84
2023-05-14T13:02:42.771Z,99895.50
2023-05-14T13:05:12.310Z,99901.31
2023-05-14T13:07:39.907Z,99890.50
2023-05-14T13:10:07.531Z,99885.06
2023-05-14T13:12:34.597Z,99894.44
2023-05-14T13:15:01.595Z,99899.44
2023-05-14T13:17:31.139Z,99879.47
2023-05-14T13:19:58.411Z,99906.28
2023-05-14T13:22:25.547Z,99895.28
2023-05-14T13:24:52.524Z,99889.84
2023-05-14T13:27:19.574Z,99887.53
2023-05-14T13:29:46.609Z,99903.31
2023-05-14T13:32:13.692Z,99900.47
2023-05-14T13:34:40.778Z,99908.28
2023-05-14T13:37:33.363Z,99903.19
2023-05-14T13:43:36.465Z,99904.03
2023-05-14T13:52:33.207Z,99920.84
2023-05-14T13:55:00.271Z,99895.28
2023-05-14T13:57:27.416Z,99916.69
2023-05-14T13:59:54.470Z,99883.19
2023-05-14T14:08:26.921Z,99902.56
2023-05-14T14:10:55.574Z,99901.09
2023-05-14T14:13:23.411Z,99892.78
2023-05-14T14:15:51.949Z,99902.75
2023-05-14T14:19:12.557Z,99915.03
2023-05-14T14:21:42.931Z,99907.97
2023-05-14T14:24:10.246Z,99903.41
2023-05-14T14:26:37.412Z,99881.56
2023-05-14T14:29:04.598Z,99904.88
2023-05-14T14:32:48.466Z,99902.56
2023-05-14T14:57:55.183Z,99917.16
2023-05-14T18:49:59.346Z,99980.06
2023-05-14T18:52:28.554Z,99963.88
2023-05-14T19:22:57.573Z,99975.03
2023-05-14T19:46:44.182Z,99982.34
2023-05-14T20:24:34.080Z,99995.34
2023-05-14T21:01:32.383Z,100007.75
2023-05-14T21:04:24.668Z,99995.16
2023-05-14T21:07:17.924Z,99998.00
2023-05-14T21:10:11.027Z,99998.19
2023-05-14T21:12:38.114Z,100007.28
2023-05-14T22:52:11.021Z,99992.97
2023-05-14T22:55:04.263Z,99999.53
2023-05-14T22:58:47.894Z,100000.72
2023-05-14T23:01:15.144Z,99981.19
2023-05-14T23:04:08.064Z,100001.25
2023-05-14T23:06:59.573Z,100005.97
